Weather at Shiloh Heliport

Public forecast

Using degrees Fahrenheit for public forecast. Weather courtesy of forecast.io.

Closest aviation weather report (METAR) to Shiloh Heliport

Closest report is Dallas Fort Worth International Airport, 8.7 nm (16.0 km) SSE.

2024/05/21 17:23 (retrieved 11 minutes ago)

KDFW 211723Z 19015KT 9SM BKN031 OVC250 29/23 A2978 RMK AO2 T02890228

Closest aviation forecast (TAF) to Shiloh Heliport

Closest forecast is Dallas Fort Worth International Airport, 8.7 nm (16.0 km) SSE.

2024/05/21 15:54 Ammendment (retrieved 2 hours ago)

TAF AMD KDFW 211450Z 2115/2218 19014G24KT P6SM BKN030 FM211600 18017KT P6SM BKN025 FM211800 18016KT P6SM SCT035 FM212000 17015KT P6SM SCT050